Time;durP1;ratioP1;P1;durP2;ratioP2;P2;SDS_P1;SDS_P2;PMS_P1;PMS_P2;Temp;Humidity;BMP_temperature;BMP_pressure;BME280_temperature;BME280_humidity;BME280_pressure;Samples;Min_cycle;Max_cycle;Signal;HPM_P1;HPM_P2
2021/12/23 00:01:39;;;;;;;7.22;3.70;;;;;;;-8.02;59.79;101435.05;1801006;79;20943;-72
2021/12/23 00:04:09;;;;;;;7.15;3.77;;;;;;;-8.02;59.79;101441.05;1800831;79;21026;-72
2021/12/23 00:06:36;;;;;;;8.05;4.08;;;;;;;-8.02;59.91;101438.94;1801149;79;21097;-72
2021/12/23 00:09:04;;;;;;;7.05;3.83;;;;;;;-8.05;59.90;101456.83;1800833;78;20994;-72
2021/12/23 00:11:31;;;;;;;7.45;3.75;;;;;;;-8.05;60.15;101439.16;1801153;79;21168;-72
2021/12/23 00:14:07;;;;;;;7.03;4.00;;;;;;;-8.07;60.10;101447.03;1800779;79;21039;-72
2021/12/23 00:16:46;;;;;;;7.30;3.90;;;;;;;-8.06;60.29;101451.30;1797533;78;21101;-72
2021/12/23 00:24:32;;;;;;;7.33;4.28;;;;;;;-8.15;60.64;101458.94;1769825;81;21073;-72
2021/12/23 00:26:59;;;;;;;8.48;3.55;;;;;;;-8.21;60.73;101462.80;1775571;78;21514;-72
2021/12/23 00:29:25;;;;;;;6.92;3.12;;;;;;;-8.17;60.69;101462.09;1769430;80;20951;-72
2021/12/23 00:31:53;;;;;;;5.72;3.20;;;;;;;-8.18;60.70;101460.45;1770143;78;21043;-73
2021/12/23 00:34:20;;;;;;;5.33;3.12;;;;;;;-8.16;60.60;101474.11;1769150;80;20967;-72
2021/12/23 00:36:46;;;;;;;5.35;3.10;;;;;;;-8.16;60.19;101479.29;1769629;80;21140;-73
2021/12/23 00:39:14;;;;;;;7.28;3.30;;;;;;;-8.16;60.08;101462.00;1770099;78;21018;-72
2021/12/23 00:41:44;;;;;;;6.70;3.60;;;;;;;-8.17;60.00;101467.28;1769436;81;21086;-73
2021/12/23 00:44:13;;;;;;;6.25;3.37;;;;;;;-8.20;59.90;101463.61;1769222;81;21557;-73
2021/12/23 00:46:40;;;;;;;5.70;3.15;;;;;;;-8.19;60.12;101471.73;1770749;78;22953;-72
2021/12/23 00:49:08;;;;;;;6.62;3.35;;;;;;;-8.18;60.19;101476.00;1778221;78;21498;-73
2021/12/23 00:51:35;;;;;;;6.70;3.05;;;;;;;-8.20;60.18;101473.51;1801048;79;20991;-72
2021/12/23 00:54:05;;;;;;;7.87;3.20;;;;;;;-8.16;60.03;101485.77;1786589;78;21046;-73
2021/12/23 00:56:35;;;;;;;6.65;3.27;;;;;;;-8.19;59.91;101484.70;1770146;78;21007;-73
2021/12/23 00:59:08;;;;;;;6.00;3.40;;;;;;;-8.19;60.04;101482.10;1769874;78;21070;-73
2021/12/23 01:01:35;;;;;;;5.95;3.10;;;;;;;-8.19;59.98;101487.28;1770964;78;21228;-73
2021/12/23 01:04:01;;;;;;;6.87;3.40;;;;;;;-8.20;60.01;101479.16;1769260;81;21014;-73
2021/12/23 01:06:28;;;;;;;7.80;4.00;;;;;;;-8.22;60.18;101475.88;1769004;81;21030;-73
2021/12/23 01:08:54;;;;;;;9.25;4.25;;;;;;;-8.28;60.53;101483.14;1787131;78;21015;-72
2021/12/23 01:11:21;;;;;;;10.05;4.08;;;;;;;-8.27;60.88;101491.27;1801168;79;21141;-72
2021/12/23 01:14:00;;;;;;;6.83;4.12;;;;;;;-8.33;61.25;101480.05;1800840;79;21094;-72
2021/12/23 01:16:35;;;;;;;7.35;3.98;;;;;;;-8.34;61.58;101481.00;1798059;79;21482;-72
2021/12/23 01:18:52;;;;;;;7.72;4.37;;;;;;;-8.32;61.83;101479.14;1798005;79;20968;-73
2021/12/23 01:21:16;;;;;;;6.33;3.58;;;;;;;-8.35;61.89;101482.42;1800331;79;20996;-73
2021/12/23 01:23:56;;;;;;;6.22;3.30;;;;;;;-8.36;62.15;101485.45;1800800;79;21486;-73
2021/12/23 01:26:23;;;;;;;6.37;3.65;;;;;;;-8.38;62.37;101482.67;1801089;79;21126;-73
2021/12/23 01:28:53;;;;;;;7.53;3.85;;;;;;;-8.41;62.44;101483.72;1794974;78;21521;-72
2021/12/23 01:31:20;;;;;;;6.65;3.90;;;;;;;-8.38;62.58;101476.20;1769566;80;20976;-72
2021/12/23 01:33:47;;;;;;;7.58;4.00;;;;;;;-8.37;62.76;101476.52;1769217;80;21533;-72
2021/12/23 01:36:13;;;;;;;7.83;3.83;;;;;;;-8.38;62.88;101477.02;1769913;78;21070;-72
2021/12/23 01:38:39;;;;;;;6.20;3.70;;;;;;;-8.38;63.06;101471.83;1769175;80;21486;-73
2021/12/23 01:41:07;;;;;;;7.53;4.05;;;;;;;-8.35;63.12;101472.88;1773515;78;20987;-73
2021/12/23 01:43:35;;;;;;;8.80;4.47;;;;;;;-8.34;63.34;101468.05;1769162;81;21015;-73
2021/12/23 01:46:01;;;;;;;9.03;4.00;;;;;;;-8.32;63.41;101464.88;1769541;80;21035;-72
2021/12/23 01:48:30;;;;;;;7.75;3.65;;;;;;;-8.31;63.68;101463.94;1769217;80;21101;-73
2021/12/23 01:50:56;;;;;;;5.97;3.72;;;;;;;-8.30;63.71;101471.23;1769559;80;21219;-72
2021/12/23 01:53:22;;;;;;;7.10;4.00;;;;;;;-8.28;63.69;101474.08;1769031;80;21663;-72
2021/12/23 01:55:49;;;;;;;7.12;4.37;;;;;;;-8.28;63.91;101471.48;1797889;78;20923;-72
2021/12/23 01:58:15;;;;;;;7.75;4.00;;;;;;;-8.27;63.88;101477.02;1800969;79;21490;-73
2021/12/23 02:00:46;;;;;;;8.08;3.90;;;;;;;-8.24;63.91;101487.63;1793652;78;21039;-72
2021/12/23 02:03:12;;;;;;;7.78;3.85;;;;;;;-8.22;63.91;101481.88;1769307;80;21030;-73
2021/12/23 02:05:40;;;;;;;7.12;4.00;;;;;;;-8.20;63.65;101473.98;1769400;80;21074;-72
2021/12/23 02:08:08;;;;;;;5.75;3.45;;;;;;;-8.19;63.42;101478.22;1770298;78;21549;-73
2021/12/23 02:10:35;;;;;;;8.13;3.92;;;;;;;-8.17;63.26;101480.23;1769469;80;21031;-72
2021/12/23 02:13:02;;;;;;;8.68;4.10;;;;;;;-8.15;63.16;101479.67;1769014;80;20928;-72
2021/12/23 02:15:30;;;;;;;9.28;3.98;;;;;;;-8.14;63.05;101482.61;1769827;78;20988;-73
2021/12/23 02:17:57;;;;;;;8.03;4.00;;;;;;;-8.14;62.83;101474.36;1769577;81;21003;-72
2021/12/23 02:20:30;;;;;;;7.58;3.95;;;;;;;-8.14;62.76;101470.94;1769432;80;21018;-73
2021/12/23 02:22:56;;;;;;;7.28;3.98;;;;;;;-8.15;62.87;101471.89;1769396;80;21581;-72
2021/12/23 02:25:23;;;;;;;7.40;3.90;;;;;;;-8.22;62.81;101469.40;1769535;80;20995;-72
2021/12/23 02:27:51;;;;;;;7.62;4.28;;;;;;;-8.28;62.78;101471.95;1769181;81;21158;-73
2021/12/23 02:30:25;;;;;;;6.92;4.00;;;;;;;-8.30;62.74;101479.01;1769371;80;20948;-72
2021/12/23 02:32:53;;;;;;;7.22;3.87;;;;;;;-8.33;62.63;101475.34;1769164;81;21465;-72
2021/12/23 02:35:22;;;;;;;8.30;3.98;;;;;;;-8.35;62.69;101472.88;1769596;80;20952;-72
2021/12/23 02:37:48;;;;;;;8.40;4.40;;;;;;;-8.33;62.75;101476.16;1769438;81;21556;-72
2021/12/23 02:40:35;;;;;;;7.58;4.05;;;;;;;-8.32;62.75;101475.25;1769093;80;21546;-72
2021/12/23 02:43:17;;;;;;;7.47;4.15;;;;;;;-8.29;62.74;101472.44;1769154;80;21113;-73
2021/12/23 02:45:47;;;;;;;7.87;3.42;;;;;;;-8.29;62.55;101476.77;1769352;80;21561;-73
2021/12/23 02:48:16;;;;;;;6.08;3.35;;;;;;;-8.29;62.38;101478.91;1769055;81;21102;-73
2021/12/23 02:50:50;;;;;;;7.50;4.35;;;;;;;-8.34;61.99;101481.47;1769288;80;21003;-73
2021/12/23 02:53:17;;;;;;;7.85;4.30;;;;;;;-8.41;62.07;101479.01;1769195;80;21126;-73
2021/12/23 02:55:44;;;;;;;6.55;3.70;;;;;;;-8.45;62.19;101475.81;1769504;80;21062;-73
2021/12/23 02:58:12;;;;;;;8.03;4.22;;;;;;;-8.43;62.27;101477.80;1769124;80;21561;-73
2021/12/23 03:00:40;;;;;;;6.20;3.80;;;;;;;-8.47;62.38;101475.08;1769615;80;21396;-73
2021/12/23 03:03:07;;;;;;;7.45;3.95;;;;;;;-8.49;62.26;101480.83;1769386;80;21118;-72
2021/12/23 03:05:35;;;;;;;6.90;3.67;;;;;;;-8.52;62.22;101475.91;1779711;78;20971;-73
2021/12/23 03:08:03;;;;;;;6.90;4.08;;;;;;;-8.56;62.22;101477.03;1800788;79;20988;-73
2021/12/23 03:10:30;;;;;;;7.22;3.77;;;;;;;-8.59;62.21;101483.25;1801300;79;21054;-73
2021/12/23 03:12:56;;;;;;;8.93;4.67;;;;;;;-8.64;62.26;101492.31;1800805;79;20940;-73
2021/12/23 03:15:23;;;;;;;7.90;4.42;;;;;;;-8.68;62.40;101484.41;1801061;79;21101;-72
2021/12/23 03:17:50;;;;;;;7.78;4.42;;;;;;;-8.71;62.39;101483.33;1801103;79;21909;-73
2021/12/23 03:20:16;;;;;;;7.97;4.17;;;;;;;-8.73;62.44;101488.60;1800922;79;20948;-73
2021/12/23 03:22:43;;;;;;;7.10;4.45;;;;;;;-8.71;62.59;101483.33;1800854;79;20979;-73
2021/12/23 03:25:11;;;;;;;8.45;4.55;;;;;;;-8.74;62.68;101494.73;1800677;79;21010;-72
2021/12/23 03:27:38;;;;;;;8.05;4.25;;;;;;;-8.78;62.75;101482.47;1800997;79;21038;-73
2021/12/23 03:30:06;;;;;;;8.63;4.80;;;;;;;-8.77;62.82;101486.70;1801151;79;21071;-73
2021/12/23 03:32:33;;;;;;;7.67;4.30;;;;;;;-8.77;62.75;101488.00;1801394;79;21106;-73
2021/12/23 03:34:59;;;;;;;10.05;5.12;;;;;;;-8.75;62.97;101481.43;1801089;79;21426;-73
2021/12/23 03:37:26;;;;;;;8.53;4.70;;;;;;;-8.77;62.90;101480.23;1801242;79;21434;-73
2021/12/23 03:39:53;;;;;;;8.70;5.15;;;;;;;-8.74;62.99;101482.60;1801044;79;21093;-73
2021/12/23 03:42:20;;;;;;;8.75;4.50;;;;;;;-8.71;63.01;101481.56;1800874;79;21048;-73
2021/12/23 03:44:49;;;;;;;10.88;4.80;;;;;;;-8.71;63.07;101480.27;1801173;79;21073;-73
2021/12/23 03:47:17;;;;;;;9.33;4.92;;;;;;;-8.74;63.11;101483.89;1801052;79;21560;-73
2021/12/23 03:49:46;;;;;;;10.80;4.85;;;;;;;-8.79;62.95;101489.03;1800435;79;21151;-73
2021/12/23 03:52:13;;;;;;;9.48;4.47;;;;;;;-8.80;63.06;101483.03;1800946;79;21062;-73
2021/12/23 03:54:40;;;;;;;8.83;4.83;;;;;;;-8.77;63.20;101491.05;1801103;79;21942;-73
2021/12/23 03:57:07;;;;;;;9.33;5.17;;;;;;;-8.78;63.17;101497.18;1801059;79;21031;-74
2021/12/23 03:59:34;;;;;;;9.15;4.85;;;;;;;-8.81;63.09;101499.98;1801211;79;20998;-73
2021/12/23 04:02:00;;;;;;;6.87;4.22;;;;;;;-8.88;62.92;101506.06;1800984;79;21597;-73
2021/12/23 04:04:27;;;;;;;8.55;5.40;;;;;;;-8.96;62.79;101508.34;1801258;78;21576;-73
2021/12/23 04:06:54;;;;;;;7.58;4.53;;;;;;;-9.01;62.90;101506.56;1801104;79;22032;-73
2021/12/23 04:09:20;;;;;;;11.05;5.85;;;;;;;-9.04;63.18;101513.23;1800684;79;21004;-73
2021/12/23 04:11:47;;;;;;;10.45;5.08;;;;;;;-9.09;63.60;101516.13;1801234;79;20979;-73
2021/12/23 04:14:13;;;;;;;7.97;4.90;;;;;;;-9.10;63.70;101509.78;1801000;79;21090;-73
2021/12/23 04:16:41;;;;;;;8.48;4.33;;;;;;;-9.09;63.77;101519.19;1801182;79;21430;-73
2021/12/23 04:19:09;;;;;;;9.20;4.62;;;;;;;-9.14;63.82;101527.28;1800823;79;21964;-73
2021/12/23 04:21:36;;;;;;;8.30;5.00;;;;;;;-9.25;63.95;101525.41;1801140;79;20979;-73
2021/12/23 04:24:03;;;;;;;9.23;4.97;;;;;;;-9.36;64.08;101525.31;1801056;79;20984;-73
2021/12/23 04:26:29;;;;;;;9.20;5.30;;;;;;;-9.46;64.20;101526.88;1801123;79;21514;-73
2021/12/23 04:28:55;;;;;;;9.45;4.80;;;;;;;-9.53;64.37;101527.75;1800775;79;21507;-73
2021/12/23 04:31:23;;;;;;;9.68;5.12;;;;;;;-9.56;64.75;101522.78;1801052;79;21655;-73
2021/12/23 04:33:52;;;;;;;8.33;4.55;;;;;;;-9.56;64.77;101528.42;1800740;79;21030;-72
2021/12/23 04:36:18;;;;;;;9.23;5.10;;;;;;;-9.62;64.79;101536.12;1801191;79;20960;-73
2021/12/23 04:38:45;;;;;;;10.20;5.17;;;;;;;-9.65;65.05;101537.61;1800889;79;21026;-73
2021/12/23 04:41:14;;;;;;;10.95;6.00;;;;;;;-9.70;65.20;101535.34;1801041;79;20987;-72
2021/12/23 04:43:41;;;;;;;10.45;5.67;;;;;;;-9.71;65.24;101542.71;1801009;79;21124;-72
2021/12/23 04:46:07;;;;;;;10.23;5.35;;;;;;;-9.71;65.24;101537.55;1801256;79;20955;-72
2021/12/23 04:48:35;;;;;;;10.38;5.20;;;;;;;-9.74;65.18;101542.95;1800988;79;21498;-72
2021/12/23 04:51:01;;;;;;;9.40;5.03;;;;;;;-9.78;65.17;101538.88;1801385;79;21518;-73
2021/12/23 04:53:28;;;;;;;9.83;5.05;;;;;;;-9.81;65.26;101537.79;1800896;79;21545;-73
2021/12/23 04:55:55;;;;;;;10.38;5.15;;;;;;;-9.82;65.23;101539.20;1800995;79;21119;-73
2021/12/23 04:58:22;;;;;;;8.93;4.70;;;;;;;-9.82;65.27;101545.19;1800979;79;21537;-72
2021/12/23 05:00:50;;;;;;;9.48;5.00;;;;;;;-9.80;65.23;101544.64;1801275;79;21447;-73
2021/12/23 05:03:18;;;;;;;9.85;5.37;;;;;;;-9.80;65.29;101541.23;1800615;78;20984;-72
2021/12/23 05:05:45;;;;;;;8.65;5.40;;;;;;;-9.84;65.35;101542.33;1801106;79;21007;-72
2021/12/23 05:08:13;;;;;;;9.60;5.40;;;;;;;-9.89;65.37;101545.70;1800992;79;21996;-73
2021/12/23 05:10:41;;;;;;;10.23;5.70;;;;;;;-9.94;65.41;101543.40;1800999;79;21074;-73
2021/12/23 05:13:08;;;;;;;11.03;5.40;;;;;;;-9.99;65.43;101548.05;1800941;79;20951;-72
2021/12/23 05:15:36;;;;;;;11.30;5.60;;;;;;;-10.07;65.58;101551.58;1800986;79;20948;-72
2021/12/23 05:18:04;;;;;;;13.03;6.42;;;;;;;-10.15;65.90;101558.08;1800862;79;21066;-72
2021/12/23 05:20:33;;;;;;;10.78;5.58;;;;;;;-10.21;66.02;101558.47;1801000;79;21018;-73
2021/12/23 05:22:59;;;;;;;8.78;4.92;;;;;;;-10.23;66.20;101556.89;1800794;79;21192;-73
2021/12/23 05:25:26;;;;;;;9.70;5.00;;;;;;;-10.29;66.35;101554.30;1800837;79;21043;-73
2021/12/23 05:27:54;;;;;;;12.28;6.08;;;;;;;-10.33;66.54;101555.42;1800605;79;21019;-72
2021/12/23 05:30:23;;;;;;;11.05;6.25;;;;;;;-10.38;66.56;101557.92;1769329;80;20926;-74
2021/12/23 05:32:49;;;;;;;11.00;5.67;;;;;;;-10.44;66.52;101565.58;1769787;80;21689;-73
2021/12/23 05:35:18;;;;;;;14.18;5.90;;;;;;;-10.52;66.55;101568.66;1769251;80;21012;-73
2021/12/23 05:37:45;;;;;;;12.07;5.53;;;;;;;-10.56;66.61;101567.62;1775862;78;21037;-73
2021/12/23 05:40:16;;;;;;;13.48;6.72;;;;;;;-10.61;66.74;101567.92;1793006;78;21030;-73
2021/12/23 05:42:42;;;;;;;12.23;5.87;;;;;;;-10.66;66.85;101569.52;1769937;80;21010;-72
2021/12/23 05:45:10;;;;;;;10.03;5.85;;;;;;;-10.69;67.01;101574.86;1769417;81;21966;-73
2021/12/23 05:47:37;;;;;;;10.85;5.92;;;;;;;-10.68;67.11;101574.40;1769048;80;20940;-73
2021/12/23 05:50:05;;;;;;;12.73;6.17;;;;;;;-10.73;67.21;101572.08;1769325;80;20999;-72
2021/12/23 05:52:32;;;;;;;14.00;6.12;;;;;;;-10.76;67.24;101574.02;1769619;80;21014;-73
2021/12/23 05:55:01;;;;;;;10.55;5.40;;;;;;;-10.82;67.24;101575.25;1769091;79;21101;-72
2021/12/23 05:57:27;;;;;;;12.15;5.53;;;;;;;-10.84;67.37;101569.34;1769356;80;21156;-72
2021/12/23 05:59:54;;;;;;;9.85;5.00;;;;;;;-10.83;67.49;101578.73;1770067;78;21081;-72
2021/12/23 06:02:20;;;;;;;12.45;5.60;;;;;;;-10.82;67.62;101585.57;1792151;78;21034;-72
2021/12/23 06:04:47;;;;;;;12.28;5.92;;;;;;;-10.80;67.64;101581.59;1788844;78;21007;-72
2021/12/23 06:07:14;;;;;;;11.68;5.95;;;;;;;-10.77;67.64;101581.41;1769379;80;21050;-72
2021/12/23 06:09:40;;;;;;;10.68;5.65;;;;;;;-10.76;67.82;101577.42;1770447;78;21153;-72
2021/12/23 06:12:08;;;;;;;13.60;7.03;;;;;;;-10.76;67.80;101587.75;1769053;80;20979;-72
2021/12/23 06:14:35;;;;;;;11.38;5.90;;;;;;;-10.75;67.76;101587.31;1769170;81;21003;-72
2021/12/23 06:17:02;;;;;;;12.70;5.95;;;;;;;-10.77;67.71;101591.73;1769160;80;21483;-72
2021/12/23 06:19:31;;;;;;;9.48;5.15;;;;;;;-10.82;67.71;101589.45;1768912;80;20987;-72
2021/12/23 06:21:57;;;;;;;10.45;5.60;;;;;;;-10.84;68.00;101594.33;1769868;80;21747;-72
2021/12/23 06:24:23;;;;;;;10.80;6.00;;;;;;;-10.83;68.15;101589.05;1769150;81;21008;-72
2021/12/23 06:26:50;;;;;;;12.10;6.25;;;;;;;-10.82;68.12;101581.70;1769284;79;21138;-72
2021/12/23 06:29:17;;;;;;;11.88;5.85;;;;;;;-10.80;68.11;101586.75;1768876;80;20979;-72
2021/12/23 06:31:44;;;;;;;12.75;6.12;;;;;;;-10.78;68.08;101583.63;1770096;78;21101;-73
2021/12/23 06:34:10;;;;;;;13.18;6.72;;;;;;;-10.79;68.08;101576.36;1769436;80;21153;-72
2021/12/23 06:36:37;;;;;;;13.72;6.70;;;;;;;-10.79;68.13;101575.06;1769318;80;21042;-73
2021/12/23 06:39:05;;;;;;;13.45;7.45;;;;;;;-10.78;68.13;101578.00;1769380;78;21000;-73
2021/12/23 06:41:32;;;;;;;16.17;8.25;;;;;;;-10.75;68.14;101578.28;1770157;78;21139;-74
2021/12/23 06:43:58;;;;;;;15.25;8.23;;;;;;;-10.69;68.12;101576.63;1772523;79;20936;-73
2021/12/23 06:46:25;;;;;;;14.20;7.33;;;;;;;-10.65;68.08;101578.91;1776459;78;21116;-73
2021/12/23 06:48:52;;;;;;;28.50;12.95;;;;;;;-10.60;68.08;101579.91;1771966;78;21031;-73
2021/12/23 06:51:18;;;;;;;18.15;8.93;;;;;;;-10.56;68.04;101585.27;1769336;81;21094;-73
2021/12/23 06:53:46;;;;;;;15.80;8.20;;;;;;;-10.55;68.11;101585.63;1769058;80;21066;-73
2021/12/23 06:56:16;;;;;;;13.38;6.67;;;;;;;-10.68;68.44;101589.88;1769599;78;21032;-73
2021/12/23 06:58:41;;;;;;;15.28;8.40;;;;;;;-10.73;68.66;101584.98;1769253;80;21163;-74
2021/12/23 07:01:07;;;;;;;12.30;6.92;;;;;;;-10.71;68.71;101586.20;1769403;78;21003;-73
2021/12/23 07:03:59;;;;;;;14.85;7.47;;;;;;;-10.68;68.80;101596.34;1769444;81;21031;-73
2021/12/23 07:06:06;;;;;;;14.05;7.22;;;;;;;-10.65;68.72;101589.70;1769839;80;21569;-74
2021/12/23 07:08:34;;;;;;;14.30;8.10;;;;;;;-10.64;68.68;101598.63;1769197;79;21094;-73
2021/12/23 07:11:01;;;;;;;16.93;8.15;;;;;;;-10.66;68.69;101593.19;1769448;80;21205;-73
2021/12/23 07:13:28;;;;;;;12.88;7.40;;;;;;;-10.66;68.76;101597.05;1769392;80;21101;-73
2021/12/23 07:15:56;;;;;;;14.87;7.70;;;;;;;-10.61;68.82;101596.33;1770239;78;20971;-74
2021/12/23 07:18:24;;;;;;;15.38;8.30;;;;;;;-10.63;68.73;101589.13;1776251;78;21034;-74
2021/12/23 07:20:51;;;;;;;16.32;8.60;;;;;;;-10.60;68.66;101593.27;1769465;80;20951;-73
2021/12/23 07:23:17;;;;;;;18.62;9.03;;;;;;;-10.58;68.53;101586.28;1769105;80;22104;-73
2021/12/23 07:25:44;;;;;;;16.57;8.00;;;;;;;-10.64;68.40;101590.88;1769703;80;21635;-73
2021/12/23 07:28:10;;;;;;;14.23;6.70;;;;;;;-10.66;68.50;101590.17;1769442;80;20935;-74
2021/12/23 07:30:37;;;;;;;16.35;7.83;;;;;;;-10.63;68.59;101589.13;1769433;80;20999;-73
2021/12/23 07:33:05;;;;;;;16.02;7.62;;;;;;;-10.61;68.58;101595.50;1769431;80;20991;-71
2021/12/23 07:35:31;;;;;;;12.88;7.00;;;;;;;-10.59;68.54;101589.33;1769348;79;21605;-74
2021/12/23 07:38:00;;;;;;;12.60;7.30;;;;;;;-10.52;68.49;101595.77;1769259;80;21101;-73
2021/12/23 07:40:27;;;;;;;16.65;7.67;;;;;;;-10.44;68.45;101590.11;1769615;80;21055;-73
2021/12/23 07:42:56;;;;;;;16.10;7.47;;;;;;;-10.36;68.49;101598.23;1769653;80;20999;-73
2021/12/23 07:45:28;;;;;;;10.80;6.20;;;;;;;-10.27;68.38;101596.34;1769412;80;21620;-73
2021/12/23 07:47:54;;;;;;;15.05;6.85;;;;;;;-10.19;68.25;101600.54;1769576;80;21125;-73
2021/12/23 07:50:21;;;;;;;13.18;7.00;;;;;;;-10.18;68.21;101595.73;1769759;80;20980;-73
2021/12/23 07:52:48;;;;;;;13.62;6.50;;;;;;;-10.10;68.22;101599.14;1769365;80;21104;-73
2021/12/23 07:55:16;;;;;;;12.07;6.37;;;;;;;-10.04;68.16;101590.97;1779611;78;21002;-72
2021/12/23 07:57:43;;;;;;;12.03;6.37;;;;;;;-9.97;68.05;101591.41;1774014;79;21099;-72
2021/12/23 08:00:12;;;;;;;10.08;5.97;;;;;;;-9.92;67.89;101595.36;1789069;78;22180;-73
2021/12/23 08:02:43;;;;;;;10.78;6.25;;;;;;;-9.90;67.73;101599.16;1790105;79;21000;-73
2021/12/23 08:05:10;;;;;;;10.45;5.58;;;;;;;-9.89;67.60;101593.52;1789970;79;21062;-73
2021/12/23 08:07:37;;;;;;;14.78;7.30;;;;;;;-9.87;67.52;101599.40;1790003;79;21005;-73
2021/12/23 08:10:07;;;;;;;13.18;6.45;;;;;;;-9.85;67.55;101595.80;1790017;79;21534;-73
2021/12/23 08:12:33;;;;;;;13.45;7.15;;;;;;;-9.76;67.59;101590.03;1790032;79;21812;-73
2021/12/23 08:15:00;;;;;;;13.43;7.10;;;;;;;-9.67;67.36;101589.91;1789901;79;20936;-72
2021/12/23 08:17:29;;;;;;;13.03;6.72;;;;;;;-9.59;67.31;101593.27;1789759;79;21102;-73
2021/12/23 08:19:55;;;;;;;11.03;6.22;;;;;;;-9.53;67.18;101588.99;1790089;79;20929;-73
2021/12/23 08:22:22;;;;;;;12.63;6.75;;;;;;;-9.50;67.14;101580.56;1789961;79;21094;-73
2021/12/23 08:24:49;;;;;;;11.57;6.62;;;;;;;-9.36;67.30;101569.30;1789987;79;21175;-74
2021/12/23 08:27:15;;;;;;;12.70;7.28;;;;;;;-9.19;67.05;101568.16;1789630;79;21130;-73
2021/12/23 08:29:43;;;;;;;13.98;7.30;;;;;;;-9.14;66.83;101570.45;1784463;79;21442;-74
2021/12/23 08:32:11;;;;;;;11.90;6.95;;;;;;;-9.09;66.67;101567.06;1778649;79;21597;-73
2021/12/23 08:34:38;;;;;;;15.25;8.10;;;;;;;-8.99;66.66;101565.03;1788286;79;21117;-73
2021/12/23 08:37:07;;;;;;;12.25;7.33;;;;;;;-8.91;66.57;101557.23;1789949;79;22193;-73
2021/12/23 08:39:34;;;;;;;13.20;7.83;;;;;;;-8.83;66.34;101549.27;1789817;79;21087;-73
2021/12/23 08:42:03;;;;;;;12.15;7.00;;;;;;;-8.85;65.77;101544.69;1789999;79;21090;-71
2021/12/23 08:44:30;;;;;;;12.98;6.12;;;;;;;-8.94;65.61;101546.61;1790301;79;21458;-73
2021/12/23 08:46:56;;;;;;;12.03;6.37;;;;;;;-8.97;65.48;101541.64;1789956;79;21489;-71
2021/12/23 08:49:23;;;;;;;15.18;7.37;;;;;;;-8.93;65.59;101535.78;1789911;79;21913;-72
2021/12/23 08:51:49;;;;;;;13.60;7.80;;;;;;;-8.80;65.56;101530.94;1789934;79;21074;-73
2021/12/23 08:54:16;;;;;;;21.85;7.47;;;;;;;-8.54;65.65;101529.57;1789756;79;20953;-74
2021/12/23 08:56:43;;;;;;;11.00;6.25;;;;;;;-8.29;65.33;101520.81;1785617;79;21042;-73
2021/12/23 08:59:09;;;;;;;10.40;6.10;;;;;;;-8.05;64.65;101522.94;1776749;78;20968;-73
2021/12/23 09:01:36;;;;;;;13.93;6.65;;;;;;;-7.97;63.62;101519.77;1760093;78;21260;-73
2021/12/23 09:04:04;;;;;;;19.23;6.92;;;;;;;-7.86;62.97;101518.53;1758641;81;21018;-73
2021/12/23 09:06:32;;;;;;;12.60;5.80;;;;;;;-7.73;62.75;101517.16;1760838;80;21033;-72
2021/12/23 09:08:58;;;;;;;12.82;6.55;;;;;;;-7.61;62.16;101504.54;1786248;79;20924;-72
2021/12/23 09:11:26;;;;;;;15.10;6.42;;;;;;;-7.59;61.72;101498.77;1790399;80;21371;-72
2021/12/23 09:13:52;;;;;;;9.15;5.42;;;;;;;-7.54;61.40;101498.41;1790101;80;21163;-71
2021/12/23 09:16:19;;;;;;;19.05;7.60;;;;;;;-7.54;60.74;101494.52;1790023;80;21050;-73
2021/12/23 09:18:46;;;;;;;20.12;6.60;;;;;;;-7.66;60.47;101487.69;1790029;80;21035;-73
2021/12/23 09:21:12;;;;;;;21.27;7.25;;;;;;;-7.63;60.67;101484.86;1789971;80;20983;-73
2021/12/23 09:23:40;;;;;;;11.50;5.80;;;;;;;-7.53;60.68;101485.82;1789848;80;21427;-73
2021/12/23 09:26:10;;;;;;;13.00;6.67;;;;;;;-7.46;60.40;101488.30;1790100;80;21772;-73
2021/12/23 09:34:06;;;;;;;11.95;5.85;;;;;;;-7.74;59.96;101480.46;1789916;80;21000;-73
2021/12/23 09:36:32;;;;;;;10.43;5.47;;;;;;;-7.71;60.12;101482.00;1790178;80;21030;-73
2021/12/23 09:39:00;;;;;;;11.83;5.75;;;;;;;-7.71;59.94;101479.41;1789877;80;22377;-72
2021/12/23 09:41:26;;;;;;;10.30;5.90;;;;;;;-7.72;60.18;101475.17;1789847;80;21431;-73
2021/12/23 09:43:57;;;;;;;9.30;5.30;;;;;;;-7.63;60.05;101478.38;1789844;80;21546;-73
2021/12/23 09:46:22;;;;;;;8.45;5.55;;;;;;;-7.61;59.71;101472.11;1789927;80;21078;-73
2021/12/23 09:48:50;;;;;;;10.18;5.42;;;;;;;-7.69;59.52;101471.05;1789843;80;20983;-72
2021/12/23 09:51:19;;;;;;;9.20;5.30;;;;;;;-7.76;59.58;101465.95;1789857;80;21097;-72
2021/12/23 09:53:59;;;;;;;10.78;6.15;;;;;;;-7.75;59.65;101465.03;1790071;80;21038;-73
2021/12/23 09:56:27;;;;;;;10.00;5.53;;;;;;;-7.78;59.76;101457.00;1787429;78;20964;-73
2021/12/23 09:58:57;;;;;;;10.55;5.90;;;;;;;-7.67;59.85;101455.70;1788422;78;21510;-72
2021/12/23 10:01:24;;;;;;;10.05;5.80;;;;;;;-7.64;59.54;101446.87;1758778;81;21490;-72
2021/12/23 10:03:50;;;;;;;11.08;6.33;;;;;;;-7.56;59.63;101439.34;1758657;81;21162;-73
2021/12/23 10:06:17;;;;;;;10.93;6.37;;;;;;;-7.40;59.71;101434.63;1758555;81;21396;-72
2021/12/23 10:08:44;;;;;;;10.88;6.37;;;;;;;-7.13;59.78;101428.23;1758489;81;20996;-72
2021/12/23 10:11:27;;;;;;;10.38;5.83;;;;;;;-6.86;59.71;101426.52;1758756;81;21055;-73
2021/12/23 10:29:32;;;;;;;10.58;6.33;;;;;;;-6.39;57.31;101410.98;1776500;80;21489;-72
2021/12/23 10:38:45;;;;;;;11.10;6.75;;;;;;;-6.07;57.23;101395.80;1758721;81;20999;-72
2021/12/23 10:41:22;;;;;;;12.05;7.75;;;;;;;-5.90;57.18;101397.78;1784646;78;21549;-72
2021/12/23 10:44:02;;;;;;;11.15;7.10;;;;;;;-5.87;56.05;101394.10;1789901;79;21112;-73
2021/12/23 10:46:34;;;;;;;12.20;7.05;;;;;;;-5.95;56.04;101390.89;1789750;79;37376;-72
2021/12/23 10:49:32;;;;;;;11.97;5.87;;;;;;;-6.00;56.02;101385.23;1789805;79;21620;-72
2021/12/23 10:52:07;;;;;;;13.00;7.25;;;;;;;-5.96;55.90;101382.72;1789653;80;21478;-73
2021/12/23 11:00:36;;;;;;;12.47;6.90;;;;;;;-5.88;55.65;101376.85;1790030;79;21019;-72
2021/12/23 11:06:16;;;;;;;13.98;7.15;;;;;;;-6.07;55.29;101370.28;1758896;81;21023;-72
2021/12/23 11:08:51;;;;;;;13.88;7.45;;;;;;;-6.10;55.35;101360.95;1757793;81;21030;-72
2021/12/23 11:36:21;;;;;;;12.20;7.83;;;;;;;-6.30;56.49;101328.00;1769361;79;21043;-73
2021/12/23 11:41:34;;;;;;;15.55;8.38;;;;;;;-6.11;56.55;101327.29;1758624;81;21031;-73
2021/12/23 11:43:54;;;;;;;13.90;7.80;;;;;;;-6.04;56.51;101325.33;1756058;81;20940;-73
2021/12/23 11:46:26;;;;;;;11.18;6.75;;;;;;;-5.96;56.51;101329.39;1758913;81;21121;-72
2021/12/23 11:49:01;;;;;;;11.38;7.28;;;;;;;-5.94;56.06;101327.49;1759239;81;21114;-72
2021/12/23 11:51:33;;;;;;;12.85;7.50;;;;;;;-6.00;55.89;101330.61;1758048;81;21049;-73
2021/12/23 11:54:04;;;;;;;13.78;8.13;;;;;;;-6.08;55.54;101322.65;1781822;78;20975;-73
2021/12/23 11:56:32;;;;;;;14.20;6.90;;;;;;;-6.20;55.76;101332.30;1789953;79;21007;-73
2021/12/23 11:59:01;;;;;;;13.05;6.87;;;;;;;-6.34;55.99;101329.22;1790263;79;21059;-73
2021/12/23 12:01:32;;;;;;;12.98;7.45;;;;;;;-6.43;56.32;101325.59;1789997;80;21059;-73
2021/12/23 12:04:04;;;;;;;11.88;6.65;;;;;;;-6.38;56.60;101329.47;1790259;79;21114;-72
2021/12/23 12:06:46;;;;;;;14.83;8.28;;;;;;;-6.40;56.57;101320.14;1765449;78;21003;-73
2021/12/23 12:09:31;;;;;;;13.13;8.03;;;;;;;-6.47;56.79;101319.83;1758599;81;21027;-73
2021/12/23 12:12:09;;;;;;;13.75;7.78;;;;;;;-6.49;56.99;101319.13;1757702;81;21082;-73
2021/12/23 12:14:43;;;;;;;13.10;7.55;;;;;;;-6.57;57.24;101326.74;1758142;81;21046;-72
2021/12/23 12:17:33;;;;;;;14.70;8.95;;;;;;;-6.72;57.45;101326.21;1758392;81;21043;-73
2021/12/23 12:20:21;;;;;;;14.83;7.83;;;;;;;-6.94;57.84;101330.20;1758994;81;20920;-72
2021/12/23 12:23:14;;;;;;;14.23;8.40;;;;;;;-7.01;58.40;101329.05;1758322;81;21526;-72
2021/12/23 12:25:47;;;;;;;15.03;8.88;;;;;;;-7.09;58.72;101324.48;1758996;81;21012;-73
2021/12/23 12:28:18;;;;;;;14.53;8.68;;;;;;;-7.13;58.92;101317.42;1758926;81;21537;-72
2021/12/23 12:31:01;;;;;;;16.00;8.45;;;;;;;-7.15;59.17;101318.48;1760414;78;21498;-72
2021/12/23 12:33:34;;;;;;;17.42;9.05;;;;;;;-7.08;59.32;101321.75;1759596;78;21649;-72
2021/12/23 12:36:07;;;;;;;14.95;8.83;;;;;;;-7.05;59.32;101318.56;1758979;81;21086;-74